»·PEaware :: PAA576 KLAX-KDEN

PAA576 :: KLAX-KDEN

FLIGHT INFORMATION

Flight Status: Arrived
Operator:
PanAm
More flights by this operator :: More flights under this callsign
Pilot: Anonymous 8274 (8274)
Aircraft: BOEING 727-200
(B722)
More flights by this aircraft type
Origin: KLAX Los Angeles Intl
United States
Destination: KDEN Denver Intl
United States
More flights between these airports :: More routes between these airports
Route: +SEBBY3 DAG J9 LAS J76 CORKR J11 FREDD J146 HBU POWDR9
File this flight plan on PilotEdge
Remarks: Diversion over canyon intentional
Altitude:
(Current/Filed)
32,000ft
Speed:
(Current/Filed)
460kts
Departed: 01-Dec-18 04:32 PM
Arrived: 01-Dec-18 06:30 PM
Distance/Time
Traveled:
747nm/1:58
Distance/Time
To Go:
Arrived

Flight Plot

Page will automatically refresh every two minutes.

Flight plan parsing failed; only flown route is shown


Map Options




Map Legend


Flown Route
Filed Route
Departure Airport
Arrival Airport
Navaid (VOR, NDB)
Fix

Horizontal Profiles

Position Reports

Time Latitude Longitude Heading Altitude Ground
Speed
01-Dec-18 15:14 33.941284 -118.402642 70 114ft 0kts
01-Dec-18 15:15 33.941284 -118.402642 70 114ft 0kts
01-Dec-18 15:16 33.941284 -118.402642 70 114ft 0kts
01-Dec-18 15:17 33.941284 -118.402642 70 114ft 0kts
01-Dec-18 15:18 33.941284 -118.402642 70 114ft 0kts
01-Dec-18 15:19 33.941284 -118.402642 70 114ft 0kts
01-Dec-18 15:20 33.941284 -118.402642 70 114ft 0kts
01-Dec-18 15:21 33.941284 -118.402642 70 114ft 0kts
01-Dec-18 15:22 33.941284 -118.402642 70 114ft 0kts
01-Dec-18 15:23 33.941284 -118.402642 70 114ft 0kts
01-Dec-18 15:24 33.941284 -118.402642 70 114ft 0kts
01-Dec-18 15:25 33.941284 -118.402642 70 114ft 0kts
01-Dec-18 15:26 33.941284 -118.402642 70 114ft 0kts
01-Dec-18 15:27 33.941284 -118.402642 70 114ft 0kts
01-Dec-18 15:28 33.941284 -118.402642 70 114ft 0kts
01-Dec-18 15:29 33.941284 -118.402642 70 114ft 0kts
01-Dec-18 15:30 33.941284 -118.402642 70 114ft 0kts
01-Dec-18 15:31 33.941284 -118.402642 70 114ft 0kts
01-Dec-18 15:32 33.941284 -118.402642 70 114ft 0kts
01-Dec-18 15:33 33.941284 -118.402642 70 114ft 0kts
01-Dec-18 15:34 33.941284 -118.402642 70 114ft 0kts
01-Dec-18 15:35 33.941284 -118.402642 70 114ft 0kts
01-Dec-18 15:36 33.941284 -118.402642 70 114ft 0kts
01-Dec-18 15:37 33.941284 -118.402642 70 114ft 0kts
01-Dec-18 15:38 33.941284 -118.402642 70 114ft 0kts
01-Dec-18 15:39 33.941284 -118.402642 70 114ft 0kts
01-Dec-18 15:40 33.941284 -118.402642 70 114ft 0kts
01-Dec-18 15:41 33.941284 -118.402642 70 114ft 0kts
01-Dec-18 15:42 33.941284 -118.402642 70 114ft 0kts
01-Dec-18 15:43 33.941284 -118.402642 70 114ft 0kts
01-Dec-18 15:44 33.941284 -118.402642 70 114ft 0kts
01-Dec-18 15:45 33.941284 -118.402642 70 114ft 0kts
01-Dec-18 15:46 33.941284 -118.402642 70 114ft 0kts
01-Dec-18 15:47 33.941284 -118.402642 70 114ft 0kts
01-Dec-18 15:48 33.941284 -118.402642 70 114ft 0kts
01-Dec-18 15:49 33.941284 -118.402642 70 114ft 0kts
01-Dec-18 15:50 33.941284 -118.402642 70 114ft 0kts
01-Dec-18 15:51 33.941284 -118.402642 70 114ft 0kts
01-Dec-18 15:52 33.941284 -118.402642 70 114ft 0kts
01-Dec-18 15:53 33.941284 -118.402642 70 114ft 0kts
01-Dec-18 15:54 33.941284 -118.402642 70 114ft 0kts
01-Dec-18 15:55 33.941311 -118.403217 149 114ft 2kts
01-Dec-18 15:56 33.941469 -118.403268 172 114ft 0kts
01-Dec-18 15:57 33.941469 -118.403268 172 114ft 0kts
01-Dec-18 15:58 33.941469 -118.403268 172 114ft 0kts
01-Dec-18 15:59 33.941468 -118.403268 172 114ft 0kts
01-Dec-18 16:00 33.941468 -118.403268 172 114ft 0kts
01-Dec-18 16:01 33.941468 -118.403268 172 114ft 0kts
01-Dec-18 16:02 33.941468 -118.403268 172 114ft 0kts
01-Dec-18 16:03 33.941468 -118.403268 172 114ft 0kts
01-Dec-18 16:04 33.941468 -118.403268 172 114ft 0kts
01-Dec-18 16:05 33.941468 -118.403268 172 114ft 0kts
01-Dec-18 16:06 33.941468 -118.403268 172 114ft 0kts
01-Dec-18 16:07 33.941468 -118.403268 172 114ft 0kts
01-Dec-18 16:08 33.941468 -118.403268 172 114ft 0kts
01-Dec-18 16:09 33.941468 -118.403268 172 114ft 0kts
01-Dec-18 16:10 33.941468 -118.403268 172 114ft 0kts
01-Dec-18 16:11 33.941468 -118.403268 172 114ft 0kts
01-Dec-18 16:12 33.941468 -118.403268 172 114ft 0kts
01-Dec-18 16:13 33.941468 -118.403268 172 114ft 0kts
01-Dec-18 16:14 33.941468 -118.403268 172 114ft 0kts
01-Dec-18 16:15 33.941468 -118.403268 172 114ft 0kts
01-Dec-18 16:16 33.941468 -118.403268 172 114ft 0kts
01-Dec-18 16:17 33.941468 -118.403268 172 114ft 0kts
01-Dec-18 16:18 33.941468 -118.403268 172 114ft 0kts
01-Dec-18 16:19 33.941468 -118.403268 172 114ft 0kts
01-Dec-18 16:20 33.941468 -118.403268 172 114ft 0kts
01-Dec-18 16:21 33.941468 -118.403268 172 114ft 0kts
01-Dec-18 16:22 33.941468 -118.403268 172 114ft 0kts
01-Dec-18 16:23 33.941468 -118.403268 172 114ft 0kts
01-Dec-18 16:24 33.941468 -118.403268 172 114ft 0kts
01-Dec-18 16:25 33.941468 -118.403268 172 114ft 0kts
01-Dec-18 16:26 33.941468 -118.403268 172 114ft 0kts
01-Dec-18 16:27 33.940651 -118.403140 173 114ft 9kts
01-Dec-18 16:28 33.938613 -118.402710 122 114ft 0kts
01-Dec-18 16:29 33.938854 -118.399328 83 114ft 17kts
01-Dec-18 16:30 33.939721 -118.391198 83 114ft 29kts
01-Dec-18 16:31 33.940769 -118.380377 98 114ft 9kts
01-Dec-18 16:32 33.940734 -118.380251 118 114ft 0kts
01-Dec-18 16:33 33.940734 -118.380251 118 114ft 0kts
01-Dec-18 16:34 33.940497 -118.380027 160 114ft 6kts
01-Dec-18 16:35 33.939202 -118.386502 263 114ft 99kts
01-Dec-18 16:36 33.931900 -118.439497 257 1901ft 178kts
01-Dec-18 16:37 33.922043 -118.510371 256 4866ft 233kts
01-Dec-18 16:38 33.875571 -118.580736 223 7728ft 286kts
01-Dec-18 16:39 33.797534 -118.578359 143 10710ft 307kts
01-Dec-18 16:40 33.724811 -118.507451 126 12822ft 350kts
01-Dec-18 16:41 33.715282 -118.394153 82 15328ft 357kts
01-Dec-18 16:42 33.735030 -118.276536 69 17604ft 367kts
01-Dec-18 16:43 33.763281 -118.156942 72 19727ft 381kts
01-Dec-18 16:44 33.787649 -118.031541 69 21628ft 390kts
01-Dec-18 16:45 33.857802 -117.942403 23 23211ft 372kts
01-Dec-18 16:46 33.949623 -117.883057 23 24741ft 381kts
01-Dec-18 16:47 34.041893 -117.818648 33 25995ft 395kts
01-Dec-18 16:48 34.123111 -117.729879 46 27158ft 410kts
01-Dec-18 16:49 34.195572 -117.621909 46 28299ft 417kts
01-Dec-18 16:50 34.273410 -117.517378 43 29311ft 423kts
01-Dec-18 16:51 34.353575 -117.412093 43 30250ft 430kts
01-Dec-18 16:52 34.435107 -117.305463 43 30807ft 443kts
01-Dec-18 16:53 34.521537 -117.193051 43 30810ft 468kts
01-Dec-18 16:54 34.612033 -117.075210 46 30807ft 490kts
01-Dec-18 16:55 34.700790 -116.947860 46 30779ft 494kts
01-Dec-18 16:56 34.788893 -116.821526 46 30776ft 490kts
01-Dec-18 16:57 34.876615 -116.695652 46 30776ft 486kts
01-Dec-18 16:58 34.950367 -116.592791 43 30776ft 482kts
01-Dec-18 16:59 35.058474 -116.457122 43 30776ft 478kts
01-Dec-18 17:00 35.133448 -116.360271 43 30782ft 477kts
01-Dec-18 17:01 35.238647 -116.224234 43 30779ft 476kts
01-Dec-18 17:02 35.314351 -116.126305 43 30778ft 475kts
01-Dec-18 17:03 35.404667 -116.009482 43 30778ft 475kts
01-Dec-18 17:04 35.495313 -115.892228 43 30724ft 475kts
01-Dec-18 17:05 35.601117 -115.755331 43 30724ft 475kts
01-Dec-18 17:06 35.676526 -115.657721 43 30723ft 474kts
01-Dec-18 17:07 35.789757 -115.532401 36 30723ft 470kts
01-Dec-18 17:08 35.866184 -115.436906 43 30696ft 472kts
01-Dec-18 17:09 35.953462 -115.320238 44 30719ft 472kts
01-Dec-18 17:10 36.042330 -115.203235 42 30697ft 471kts
01-Dec-18 17:11 36.099293 -115.037793 95 30706ft 488kts
01-Dec-18 17:12 36.081851 -114.900817 96 30724ft 489kts
01-Dec-18 17:13 36.078728 -114.734502 86 30728ft 485kts
01-Dec-18 17:14 36.079662 -114.567994 88 30728ft 487kts
01-Dec-18 17:15 36.078315 -114.400591 87 30728ft 488kts
01-Dec-18 17:16 36.076749 -114.236139 88 30726ft 489kts
01-Dec-18 17:17 36.075301 -114.068742 87 30726ft 490kts
01-Dec-18 17:18 36.073765 -113.900166 87 30752ft 490kts
01-Dec-18 17:19 36.072009 -113.732208 87 30777ft 491kts
01-Dec-18 17:20 36.070013 -113.563828 87 30782ft 492kts
01-Dec-18 17:21 36.067771 -113.394949 87 30782ft 493kts
01-Dec-18 17:22 36.065030 -113.234985 88 30780ft 493kts
01-Dec-18 17:23 36.062217 -113.067371 88 30780ft 494kts
01-Dec-18 17:24 36.059275 -112.898111 88 30781ft 495kts
01-Dec-18 17:25 36.066173 -112.730901 75 30781ft 491kts
01-Dec-18 17:26 36.079500 -112.563896 83 30797ft 502kts
01-Dec-18 17:27 36.082318 -112.391365 74 30781ft 500kts
01-Dec-18 17:28 36.156163 -112.275977 8 30793ft 422kts
01-Dec-18 17:29 36.266133 -112.279037 344 30778ft 397kts
01-Dec-18 17:30 36.372400 -112.308771 336 30776ft 393kts
01-Dec-18 17:31 36.477654 -112.345439 336 30774ft 399kts
01-Dec-18 17:32 36.586306 -112.374265 356 30783ft 423kts
01-Dec-18 17:33 36.703421 -112.359084 356 30772ft 428kts
01-Dec-18 17:34 36.821801 -112.345055 351 30770ft 425kts
01-Dec-18 17:35 36.940275 -112.341382 0 30760ft 439kts
01-Dec-18 17:36 37.033053 -112.233920 67 30737ft 515kts
01-Dec-18 17:37 37.055592 -112.054645 77 30720ft 525kts
01-Dec-18 17:38 37.076880 -111.874552 78 30714ft 529kts
01-Dec-18 17:39 37.102950 -111.698188 77 30730ft 534kts
01-Dec-18 17:40 37.130845 -111.517702 73 30733ft 538kts
01-Dec-18 17:41 37.167595 -111.342929 71 30733ft 541kts
01-Dec-18 17:42 37.214217 -111.165122 68 30722ft 542kts
01-Dec-18 17:43 37.261938 -110.986417 68 30724ft 545kts
01-Dec-18 17:44 37.310093 -110.806016 67 30699ft 549kts
01-Dec-18 17:45 37.360685 -110.624513 64 30735ft 555kts
01-Dec-18 17:46 37.414241 -110.441263 64 30763ft 563kts
01-Dec-18 17:47 37.466122 -110.263843 65 30826ft 568kts
01-Dec-18 17:48 37.520868 -110.076790 65 30831ft 573kts
01-Dec-18 17:49 37.572007 -109.886981 64 30832ft 575kts
01-Dec-18 17:50 37.618337 -109.695021 64 30835ft 570kts
01-Dec-18 17:51 37.664620 -109.504166 64 30839ft 570kts
01-Dec-18 17:52 37.709000 -109.320077 64 30824ft 568kts
01-Dec-18 17:53 37.754367 -109.132725 64 30825ft 565kts
01-Dec-18 17:54 37.799848 -108.944652 64 30802ft 564kts
01-Dec-18 17:55 37.854690 -108.762259 56 30778ft 552kts
01-Dec-18 17:56 37.917092 -108.584891 56 30781ft 553kts
01-Dec-18 17:57 37.982667 -108.411219 54 30784ft 551kts
01-Dec-18 17:58 38.045573 -108.246619 54 30766ft 551kts
01-Dec-18 17:59 38.106518 -108.077073 58 30777ft 555kts
01-Dec-18 18:00 38.161188 -107.909258 58 30779ft 557kts
01-Dec-18 18:01 38.215528 -107.724139 61 30765ft 565kts
01-Dec-18 18:02 38.272119 -107.538098 58 30737ft 565kts
01-Dec-18 18:03 38.330575 -107.352774 58 30758ft 567kts
01-Dec-18 18:04 38.385554 -107.179189 59 30774ft 567kts
01-Dec-18 18:05 38.447322 -106.994531 56 30779ft 565kts
01-Dec-18 18:06 38.510010 -106.812894 54 30719ft 541kts
01-Dec-18 18:07 38.593695 -106.667088 36 28553ft 496kts
01-Dec-18 18:08 38.687611 -106.546134 29 26520ft 469kts
01-Dec-18 18:09 38.783440 -106.438491 29 24604ft 454kts
01-Dec-18 18:10 38.871767 -106.342128 29 23776ft 447kts
01-Dec-18 18:11 38.955650 -106.223718 45 23825ft 470kts
01-Dec-18 18:12 39.028708 -106.096525 47 22795ft 398kts
01-Dec-18 18:13 39.101149 -105.996801 47 20608ft 396kts
01-Dec-18 18:14 39.170298 -105.892025 47 18781ft 387kts
01-Dec-18 18:15 39.236163 -105.789013 51 17483ft 361kts
01-Dec-18 18:16 39.290669 -105.685642 56 16907ft 321kts
01-Dec-18 18:17 39.337784 -105.590500 58 16995ft 311kts
01-Dec-18 18:18 39.382660 -105.496728 57 16349ft 305kts
01-Dec-18 18:19 39.425266 -105.402405 58 15013ft 302kts
01-Dec-18 18:20 39.464611 -105.318147 58 14942ft 282kts
01-Dec-18 18:21 39.495665 -105.228922 69 14740ft 261kts
01-Dec-18 18:22 39.521691 -105.140559 69 13534ft 261kts
01-Dec-18 18:23 39.547223 -105.054005 69 12457ft 256kts
01-Dec-18 18:24 39.572327 -104.969029 68 11459ft 252kts
01-Dec-18 18:25 39.597182 -104.885048 68 10376ft 246kts
01-Dec-18 18:26 39.621646 -104.803159 68 8843ft 243kts
01-Dec-18 18:27 39.645572 -104.723624 68 7928ft 219kts
01-Dec-18 18:28 39.673852 -104.661440 55 7926ft 189kts
01-Dec-18 18:29 39.714347 -104.641071 355 8070ft 154kts
01-Dec-18 18:30 39.757143 -104.642181 359 7131ft 159kts
01-Dec-18 18:31 39.799877 -104.642151 358 6055ft 152kts
01-Dec-18 18:32 39.841430 -104.641589 358 5359ft 134kts
01-Dec-18 18:33 39.856782 -104.642816 330 5346ft 0kts
01-Dec-18 18:34 39.856782 -104.642816 330 5346ft 0kts
01-Dec-18 18:35 39.856782 -104.642816 330 5346ft 0kts
01-Dec-18 18:36 39.857025 -104.642991 330 5346ft 12kts
01-Dec-18 18:37 39.863836 -104.647997 330 5355ft 31kts
01-Dec-18 18:38 39.864950 -104.655685 269 5372ft 25kts
01-Dec-18 18:39 39.864711 -104.665640 209 5384ft 17kts
01-Dec-18 18:40 39.861229 -104.668135 270 5380ft 15kts
01-Dec-18 18:41 39.862367 -104.671527 358 5379ft 5kts

Navigation Log

Ident Type
Flight plan parsing failed, navigation log unavailable